sensor_id;sensor_type;location;lat;lon;timestamp;P1;durP1;ratioP1;P2;durP2;ratioP2
77733;SDS011;66902;41.720;44.796;2023-02-23T00:01:40;0.40;;;0.20;;
77733;SDS011;66902;41.720;44.796;2023-02-23T00:04:14;0.00;;;0.00;;
77733;SDS011;66902;41.720;44.796;2023-02-23T00:06:48;0.30;;;0.10;;
77733;SDS011;66902;41.720;44.796;2023-02-23T00:09:24;0.30;;;0.10;;
77733;SDS011;66902;41.720;44.796;2023-02-23T00:12:06;0.40;;;0.20;;
77733;SDS011;66902;41.720;44.796;2023-02-23T00:14:41;0.00;;;0.00;;
77733;SDS011;66902;41.720;44.796;2023-02-23T00:17:16;0.40;;;0.20;;
77733;SDS011;66902;41.720;44.796;2023-02-23T00:19:53;0.20;;;0.10;;
77733;SDS011;66902;41.720;44.796;2023-02-23T00:22:26;0.00;;;0.00;;
77733;SDS011;66902;41.720;44.796;2023-02-23T00:25:01;0.20;;;0.20;;
77733;SDS011;66902;41.720;44.796;2023-02-23T00:27:37;0.00;;;0.00;;
77733;SDS011;66902;41.720;44.796;2023-02-23T00:32:50;0.10;;;0.00;;
77733;SDS011;66902;41.720;44.796;2023-02-23T00:35:23;0.30;;;0.00;;
77733;SDS011;66902;41.720;44.796;2023-02-23T00:37:57;0.20;;;0.10;;
77733;SDS011;66902;41.720;44.796;2023-02-23T00:40:31;0.10;;;0.00;;
77733;SDS011;66902;41.720;44.796;2023-02-23T00:43:05;0.10;;;0.10;;
77733;SDS011;66902;41.720;44.796;2023-02-23T00:45:39;0.20;;;0.10;;
77733;SDS011;66902;41.720;44.796;2023-02-23T00:48:15;0.40;;;0.10;;
77733;SDS011;66902;41.720;44.796;2023-02-23T00:50:57;0.10;;;0.10;;
77733;SDS011;66902;41.720;44.796;2023-02-23T00:53:31;0.20;;;0.00;;
77733;SDS011;66902;41.720;44.796;2023-02-23T00:56:07;0.00;;;0.00;;
77733;SDS011;66902;41.720;44.796;2023-02-23T00:58:42;0.20;;;0.10;;
77733;SDS011;66902;41.720;44.796;2023-02-23T01:01:17;0.90;;;0.00;;
77733;SDS011;66902;41.720;44.796;2023-02-23T01:03:52;0.60;;;0.10;;
77733;SDS011;66902;41.720;44.796;2023-02-23T01:06:27;0.50;;;0.10;;
77733;SDS011;66902;41.720;44.796;2023-02-23T01:09:05;0.10;;;0.10;;
77733;SDS011;66902;41.720;44.796;2023-02-23T01:11:39;0.00;;;0.00;;
77733;SDS011;66902;41.720;44.796;2023-02-23T01:14:15;0.10;;;0.10;;
77733;SDS011;66902;41.720;44.796;2023-02-23T01:16:50;0.90;;;0.10;;
77733;SDS011;66902;41.720;44.796;2023-02-23T01:19:25;0.10;;;0.10;;
77733;SDS011;66902;41.720;44.796;2023-02-23T01:22:03;0.00;;;0.00;;
77733;SDS011;66902;41.720;44.796;2023-02-23T01:24:43;0.70;;;0.30;;
77733;SDS011;66902;41.720;44.796;2023-02-23T01:27:17;0.10;;;0.10;;
77733;SDS011;66902;41.720;44.796;2023-02-23T01:29:50;0.20;;;0.00;;
77733;SDS011;66902;41.720;44.796;2023-02-23T01:32:26;0.10;;;0.10;;
77733;SDS011;66902;41.720;44.796;2023-02-23T01:35:00;0.40;;;0.10;;
77733;SDS011;66902;41.720;44.796;2023-02-23T01:37:34;0.80;;;0.10;;
77733;SDS011;66902;41.720;44.796;2023-02-23T01:40:12;0.90;;;0.30;;
77733;SDS011;66902;41.720;44.796;2023-02-23T01:42:58;0.10;;;0.10;;
77733;SDS011;66902;41.720;44.796;2023-02-23T01:45:42;0.10;;;0.10;;
77733;SDS011;66902;41.720;44.796;2023-02-23T01:48:16;0.00;;;0.00;;
77733;SDS011;66902;41.720;44.796;2023-02-23T01:50:52;0.00;;;0.00;;
77733;SDS011;66902;41.720;44.796;2023-02-23T01:53:29;4.50;;;0.10;;
77733;SDS011;66902;41.720;44.796;2023-02-23T01:56:04;0.30;;;0.10;;
77733;SDS011;66902;41.720;44.796;2023-02-23T01:58:42;0.10;;;0.00;;
77733;SDS011;66902;41.720;44.796;2023-02-23T02:01:17;0.40;;;0.20;;
77733;SDS011;66902;41.720;44.796;2023-02-23T02:03:52;0.20;;;0.10;;
77733;SDS011;66902;41.720;44.796;2023-02-23T02:06:28;2.60;;;0.20;;
77733;SDS011;66902;41.720;44.796;2023-02-23T02:09:04;4.00;;;0.40;;
77733;SDS011;66902;41.720;44.796;2023-02-23T02:11:39;0.20;;;0.10;;
77733;SDS011;66902;41.720;44.796;2023-02-23T02:14:16;0.40;;;0.30;;
77733;SDS011;66902;41.720;44.796;2023-02-23T02:16:59;0.00;;;0.00;;
77733;SDS011;66902;41.720;44.796;2023-02-23T02:19:53;0.40;;;0.10;;
77733;SDS011;66902;41.720;44.796;2023-02-23T02:22:51;0.00;;;0.00;;
77733;SDS011;66902;41.720;44.796;2023-02-23T02:25:50;0.10;;;0.00;;
77733;SDS011;66902;41.720;44.796;2023-02-23T02:37:47;0.20;;;0.00;;
77733;SDS011;66902;41.720;44.796;2023-02-23T02:40:31;0.00;;;0.00;;
77733;SDS011;66902;41.720;44.796;2023-02-23T02:43:24;0.10;;;0.10;;
77733;SDS011;66902;41.720;44.796;2023-02-23T02:46:06;0.10;;;0.10;;
77733;SDS011;66902;41.720;44.796;2023-02-23T02:48:44;0.20;;;0.10;;
77733;SDS011;66902;41.720;44.796;2023-02-23T02:51:23;0.30;;;0.10;;
77733;SDS011;66902;41.720;44.796;2023-02-23T02:56:36;0.10;;;0.10;;
77733;SDS011;66902;41.720;44.796;2023-02-23T02:59:12;0.10;;;0.00;;
77733;SDS011;66902;41.720;44.796;2023-02-23T03:02:05;0.00;;;0.00;;
77733;SDS011;66902;41.720;44.796;2023-02-23T03:04:59;0.00;;;0.00;;
77733;SDS011;66902;41.720;44.796;2023-02-23T03:07:51;0.00;;;0.00;;
77733;SDS011;66902;41.720;44.796;2023-02-23T03:10:49;0.20;;;0.10;;
77733;SDS011;66902;41.720;44.796;2023-02-23T03:13:46;0.10;;;0.10;;
77733;SDS011;66902;41.720;44.796;2023-02-23T03:16:45;2.90;;;0.20;;
77733;SDS011;66902;41.720;44.796;2023-02-23T03:19:43;1.00;;;0.60;;
77733;SDS011;66902;41.720;44.796;2023-02-23T03:22:41;0.40;;;0.30;;
77733;SDS011;66902;41.720;44.796;2023-02-23T03:28:33;0.50;;;0.30;;
77733;SDS011;66902;41.720;44.796;2023-02-23T03:31:25;6.10;;;1.20;;
77733;SDS011;66902;41.720;44.796;2023-02-23T03:37:14;0.30;;;0.30;;
77733;SDS011;66902;41.720;44.796;2023-02-23T03:40:09;2.20;;;0.80;;
77733;SDS011;66902;41.720;44.796;2023-02-23T03:43:04;1.30;;;0.30;;
77733;SDS011;66902;41.720;44.796;2023-02-23T03:45:56;1.30;;;0.30;;
77733;SDS011;66902;41.720;44.796;2023-02-23T03:48:49;1.00;;;0.60;;
77733;SDS011;66902;41.720;44.796;2023-02-23T03:51:44;1.10;;;0.40;;
77733;SDS011;66902;41.720;44.796;2023-02-23T03:54:39;1.30;;;0.70;;
77733;SDS011;66902;41.720;44.796;2023-02-23T03:57:34;1.50;;;1.00;;
77733;SDS011;66902;41.720;44.796;2023-02-23T04:00:26;0.80;;;0.30;;
77733;SDS011;66902;41.720;44.796;2023-02-23T04:03:20;1.70;;;0.50;;
77733;SDS011;66902;41.720;44.796;2023-02-23T04:06:12;0.90;;;0.30;;
77733;SDS011;66902;41.720;44.796;2023-02-23T04:09:04;0.60;;;0.30;;
77733;SDS011;66902;41.720;44.796;2023-02-23T04:11:56;1.50;;;0.30;;
77733;SDS011;66902;41.720;44.796;2023-02-23T04:14:53;1.00;;;0.40;;
77733;SDS011;66902;41.720;44.796;2023-02-23T04:17:30;0.60;;;0.30;;
77733;SDS011;66902;41.720;44.796;2023-02-23T04:20:04;0.20;;;0.20;;
77733;SDS011;66902;41.720;44.796;2023-02-23T04:22:40;1.20;;;0.50;;
77733;SDS011;66902;41.720;44.796;2023-02-23T04:25:15;1.20;;;0.70;;
77733;SDS011;66902;41.720;44.796;2023-02-23T04:27:51;21.20;;;2.40;;
77733;SDS011;66902;41.720;44.796;2023-02-23T04:30:25;3.30;;;0.40;;
77733;SDS011;66902;41.720;44.796;2023-02-23T04:32:59;0.90;;;0.40;;
77733;SDS011;66902;41.720;44.796;2023-02-23T04:35:33;7.70;;;0.30;;
77733;SDS011;66902;41.720;44.796;2023-02-23T04:38:07;1.00;;;0.60;;
77733;SDS011;66902;41.720;44.796;2023-02-23T04:40:41;1.00;;;0.50;;
77733;SDS011;66902;41.720;44.796;2023-02-23T04:43:15;0.80;;;0.50;;
77733;SDS011;66902;41.720;44.796;2023-02-23T04:45:49;1.80;;;0.60;;
77733;SDS011;66902;41.720;44.796;2023-02-23T04:48:23;0.40;;;0.30;;
77733;SDS011;66902;41.720;44.796;2023-02-23T04:50:57;2.50;;;0.70;;
77733;SDS011;66902;41.720;44.796;2023-02-23T04:53:31;1.20;;;0.70;;
77733;SDS011;66902;41.720;44.796;2023-02-23T04:56:07;2.30;;;0.80;;
77733;SDS011;66902;41.720;44.796;2023-02-23T04:58:41;3.20;;;0.70;;
77733;SDS011;66902;41.720;44.796;2023-02-23T05:01:16;3.80;;;1.00;;
77733;SDS011;66902;41.720;44.796;2023-02-23T05:03:51;2.90;;;0.70;;
77733;SDS011;66902;41.720;44.796;2023-02-23T05:06:25;2.10;;;0.90;;
77733;SDS011;66902;41.720;44.796;2023-02-23T05:08:59;3.40;;;1.10;;
77733;SDS011;66902;41.720;44.796;2023-02-23T05:11:35;2.80;;;1.00;;
77733;SDS011;66902;41.720;44.796;2023-02-23T05:14:08;1.10;;;0.60;;
77733;SDS011;66902;41.720;44.796;2023-02-23T05:16:42;2.60;;;0.80;;
77733;SDS011;66902;41.720;44.796;2023-02-23T05:19:16;1.80;;;0.50;;
77733;SDS011;66902;41.720;44.796;2023-02-23T05:21:50;2.60;;;0.70;;
77733;SDS011;66902;41.720;44.796;2023-02-23T05:24:25;2.60;;;0.90;;
77733;SDS011;66902;41.720;44.796;2023-02-23T05:26:58;1.20;;;0.60;;
77733;SDS011;66902;41.720;44.796;2023-02-23T05:29:32;3.90;;;1.40;;
77733;SDS011;66902;41.720;44.796;2023-02-23T05:32:08;1.30;;;0.80;;
77733;SDS011;66902;41.720;44.796;2023-02-23T05:34:41;6.10;;;1.80;;
77733;SDS011;66902;41.720;44.796;2023-02-23T05:37:15;5.00;;;1.50;;
77733;SDS011;66902;41.720;44.796;2023-02-23T05:39:49;3.50;;;1.30;;
77733;SDS011;66902;41.720;44.796;2023-02-23T05:42:25;4.50;;;2.20;;
77733;SDS011;66902;41.720;44.796;2023-02-23T05:44:59;4.30;;;1.20;;
77733;SDS011;66902;41.720;44.796;2023-02-23T05:47:35;0.90;;;0.60;;
77733;SDS011;66902;41.720;44.796;2023-02-23T05:50:10;2.10;;;0.90;;
77733;SDS011;66902;41.720;44.796;2023-02-23T05:52:44;5.60;;;1.10;;
77733;SDS011;66902;41.720;44.796;2023-02-23T05:55:18;2.20;;;1.00;;
77733;SDS011;66902;41.720;44.796;2023-02-23T05:57:52;3.20;;;1.10;;
77733;SDS011;66902;41.720;44.796;2023-02-23T06:00:26;2.50;;;1.30;;
77733;SDS011;66902;41.720;44.796;2023-02-23T06:02:59;9.70;;;1.10;;
77733;SDS011;66902;41.720;44.796;2023-02-23T06:05:35;4.20;;;1.20;;
77733;SDS011;66902;41.720;44.796;2023-02-23T06:08:09;2.40;;;1.50;;
77733;SDS011;66902;41.720;44.796;2023-02-23T06:10:43;6.00;;;1.20;;
77733;SDS011;66902;41.720;44.796;2023-02-23T06:13:19;1.50;;;1.00;;
77733;SDS011;66902;41.720;44.796;2023-02-23T06:15:52;1.40;;;1.00;;
77733;SDS011;66902;41.720;44.796;2023-02-23T06:18:27;3.40;;;1.20;;
77733;SDS011;66902;41.720;44.796;2023-02-23T06:21:02;4.30;;;1.20;;
77733;SDS011;66902;41.720;44.796;2023-02-23T06:23:36;3.60;;;1.50;;
77733;SDS011;66902;41.720;44.796;2023-02-23T06:26:10;7.70;;;1.70;;
77733;SDS011;66902;41.720;44.796;2023-02-23T06:28:45;3.90;;;1.70;;
77733;SDS011;66902;41.720;44.796;2023-02-23T06:31:19;3.00;;;2.00;;
77733;SDS011;66902;41.720;44.796;2023-02-23T06:33:53;4.40;;;2.10;;
77733;SDS011;66902;41.720;44.796;2023-02-23T06:36:27;9.80;;;2.00;;
77733;SDS011;66902;41.720;44.796;2023-02-23T06:39:01;5.60;;;3.20;;
77733;SDS011;66902;41.720;44.796;2023-02-23T06:41:35;4.40;;;1.80;;
77733;SDS011;66902;41.720;44.796;2023-02-23T06:44:09;5.40;;;1.40;;
77733;SDS011;66902;41.720;44.796;2023-02-23T06:46:43;2.40;;;1.20;;
77733;SDS011;66902;41.720;44.796;2023-02-23T06:49:17;1.30;;;0.80;;
77733;SDS011;66902;41.720;44.796;2023-02-23T06:51:53;2.30;;;1.10;;
77733;SDS011;66902;41.720;44.796;2023-02-23T06:56:59;6.50;;;1.40;;
77733;SDS011;66902;41.720;44.796;2023-02-23T06:59:33;2.30;;;0.80;;
77733;SDS011;66902;41.720;44.796;2023-02-23T07:02:08;0.90;;;0.60;;
77733;SDS011;66902;41.720;44.796;2023-02-23T07:04:46;4.50;;;1.60;;
77733;SDS011;66902;41.720;44.796;2023-02-23T07:09:52;17.00;;;2.00;;
77733;SDS011;66902;41.720;44.796;2023-02-23T07:12:26;4.20;;;1.80;;
77733;SDS011;66902;41.720;44.796;2023-02-23T07:15:00;3.90;;;1.40;;
77733;SDS011;66902;41.720;44.796;2023-02-23T07:17:35;3.10;;;0.90;;
77733;SDS011;66902;41.720;44.796;2023-02-23T07:20:11;3.90;;;1.70;;
77733;SDS011;66902;41.720;44.796;2023-02-23T07:22:45;2.50;;;2.00;;
77733;SDS011;66902;41.720;44.796;2023-02-23T07:25:23;5.00;;;1.90;;
77733;SDS011;66902;41.720;44.796;2023-02-23T07:27:58;4.00;;;1.90;;
77733;SDS011;66902;41.720;44.796;2023-02-23T07:30:31;3.90;;;2.50;;
77733;SDS011;66902;41.720;44.796;2023-02-23T07:33:05;1.90;;;1.80;;
77733;SDS011;66902;41.720;44.796;2023-02-23T07:35:39;7.70;;;2.40;;
77733;SDS011;66902;41.720;44.796;2023-02-23T07:38:16;2.10;;;1.80;;
77733;SDS011;66902;41.720;44.796;2023-02-23T07:40:51;11.40;;;2.70;;
77733;SDS011;66902;41.720;44.796;2023-02-23T07:43:25;2.90;;;2.00;;
77733;SDS011;66902;41.720;44.796;2023-02-23T07:48:33;2.50;;;1.60;;
77733;SDS011;66902;41.720;44.796;2023-02-23T07:51:09;4.10;;;2.10;;
77733;SDS011;66902;41.720;44.796;2023-02-23T07:53:44;3.10;;;2.10;;
77733;SDS011;66902;41.720;44.796;2023-02-23T07:56:21;3.50;;;1.90;;
77733;SDS011;66902;41.720;44.796;2023-02-23T07:58:58;2.80;;;2.10;;
77733;SDS011;66902;41.720;44.796;2023-02-23T08:01:33;4.70;;;3.20;;
77733;SDS011;66902;41.720;44.796;2023-02-23T08:04:07;6.00;;;3.10;;
77733;SDS011;66902;41.720;44.796;2023-02-23T08:06:41;5.80;;;3.10;;
77733;SDS011;66902;41.720;44.796;2023-02-23T08:09:30;11.00;;;3.70;;
77733;SDS011;66902;41.720;44.796;2023-02-23T08:12:05;5.10;;;4.00;;
77733;SDS011;66902;41.720;44.796;2023-02-23T08:14:39;4.00;;;2.20;;
77733;SDS011;66902;41.720;44.796;2023-02-23T08:17:15;7.20;;;2.40;;
77733;SDS011;66902;41.720;44.796;2023-02-23T08:19:51;6.90;;;2.90;;
77733;SDS011;66902;41.720;44.796;2023-02-23T08:22:26;5.40;;;1.90;;
77733;SDS011;66902;41.720;44.796;2023-02-23T08:25:16;4.00;;;2.40;;
77733;SDS011;66902;41.720;44.796;2023-02-23T08:27:49;2.80;;;1.60;;
77733;SDS011;66902;41.720;44.796;2023-02-23T08:30:24;5.30;;;2.20;;
77733;SDS011;66902;41.720;44.796;2023-02-23T08:33:00;8.70;;;7.60;;
77733;SDS011;66902;41.720;44.796;2023-02-23T08:35:39;10.10;;;3.20;;
77733;SDS011;66902;41.720;44.796;2023-02-23T08:38:17;3.60;;;2.30;;
77733;SDS011;66902;41.720;44.796;2023-02-23T08:40:53;4.90;;;3.10;;
77733;SDS011;66902;41.720;44.796;2023-02-23T08:43:27;3.90;;;2.30;;
77733;SDS011;66902;41.720;44.796;2023-02-23T08:46:02;5.10;;;3.00;;
77733;SDS011;66902;41.720;44.796;2023-02-23T08:48:37;2.80;;;2.30;;
77733;SDS011;66902;41.720;44.796;2023-02-23T08:51:10;3.50;;;2.40;;
77733;SDS011;66902;41.720;44.796;2023-02-23T08:53:45;6.40;;;2.90;;
77733;SDS011;66902;41.720;44.796;2023-02-23T08:56:21;3.60;;;2.00;;
77733;SDS011;66902;41.720;44.796;2023-02-23T08:58:56;2.80;;;1.90;;
77733;SDS011;66902;41.720;44.796;2023-02-23T09:01:31;4.70;;;2.10;;
77733;SDS011;66902;41.720;44.796;2023-02-23T09:04:06;5.80;;;2.30;;
77733;SDS011;66902;41.720;44.796;2023-02-23T09:06:40;4.10;;;2.50;;
77733;SDS011;66902;41.720;44.796;2023-02-23T09:09:14;2.90;;;1.90;;
77733;SDS011;66902;41.720;44.796;2023-02-23T09:11:48;8.60;;;3.00;;
77733;SDS011;66902;41.720;44.796;2023-02-23T09:14:23;8.50;;;3.00;;
77733;SDS011;66902;41.720;44.796;2023-02-23T09:16:57;4.30;;;3.40;;
77733;SDS011;66902;41.720;44.796;2023-02-23T09:19:32;4.00;;;2.60;;
77733;SDS011;66902;41.720;44.796;2023-02-23T09:22:06;5.60;;;3.50;;
77733;SDS011;66902;41.720;44.796;2023-02-23T09:24:40;3.30;;;2.00;;
77733;SDS011;66902;41.720;44.796;2023-02-23T09:27:14;4.10;;;2.40;;
77733;SDS011;66902;41.720;44.796;2023-02-23T09:29:48;6.70;;;3.40;;
77733;SDS011;66902;41.720;44.796;2023-02-23T09:32:23;6.30;;;3.40;;
77733;SDS011;66902;41.720;44.796;2023-02-23T09:34:57;4.20;;;3.10;;
77733;SDS011;66902;41.720;44.796;2023-02-23T09:37:31;3.70;;;2.20;;
77733;SDS011;66902;41.720;44.796;2023-02-23T09:40:06;3.30;;;2.50;;
77733;SDS011;66902;41.720;44.796;2023-02-23T09:42:41;4.80;;;2.50;;
77733;SDS011;66902;41.720;44.796;2023-02-23T09:45:20;3.50;;;2.10;;
77733;SDS011;66902;41.720;44.796;2023-02-23T09:47:59;2.10;;;1.90;;
77733;SDS011;66902;41.720;44.796;2023-02-23T09:50:39;2.90;;;2.30;;
77733;SDS011;66902;41.720;44.796;2023-02-23T09:53:20;4.10;;;2.30;;
77733;SDS011;66902;41.720;44.796;2023-02-23T09:56:02;4.90;;;2.90;;
77733;SDS011;66902;41.720;44.796;2023-02-23T09:58:41;2.70;;;1.70;;
77733;SDS011;66902;41.720;44.796;2023-02-23T10:01:20;3.70;;;2.00;;
77733;SDS011;66902;41.720;44.796;2023-02-23T10:04:06;5.10;;;3.20;;
77733;SDS011;66902;41.720;44.796;2023-02-23T10:06:47;3.60;;;2.50;;
77733;SDS011;66902;41.720;44.796;2023-02-23T10:09:40;2.40;;;1.70;;
77733;SDS011;66902;41.720;44.796;2023-02-23T10:12:20;3.90;;;2.20;;
77733;SDS011;66902;41.720;44.796;2023-02-23T10:15:03;5.00;;;1.60;;
77733;SDS011;66902;41.720;44.796;2023-02-23T10:17:45;3.40;;;1.90;;
77733;SDS011;66902;41.720;44.796;2023-02-23T10:20:26;6.70;;;2.00;;
77733;SDS011;66902;41.720;44.796;2023-02-23T10:23:06;2.20;;;1.40;;
77733;SDS011;66902;41.720;44.796;2023-02-23T10:25:43;5.50;;;2.80;;
77733;SDS011;66902;41.720;44.796;2023-02-23T10:28:18;3.10;;;1.90;;
77733;SDS011;66902;41.720;44.796;2023-02-23T10:30:54;3.70;;;2.40;;
77733;SDS011;66902;41.720;44.796;2023-02-23T10:33:30;4.00;;;2.00;;
77733;SDS011;66902;41.720;44.796;2023-02-23T10:36:11;1.30;;;1.00;;
77733;SDS011;66902;41.720;44.796;2023-02-23T10:38:46;4.80;;;1.40;;
77733;SDS011;66902;41.720;44.796;2023-02-23T10:41:22;2.40;;;1.00;;
77733;SDS011;66902;41.720;44.796;2023-02-23T10:44:01;2.20;;;1.10;;
77733;SDS011;66902;41.720;44.796;2023-02-23T10:46:48;4.50;;;1.50;;
77733;SDS011;66902;41.720;44.796;2023-02-23T10:49:31;3.40;;;0.80;;
77733;SDS011;66902;41.720;44.796;2023-02-23T10:52:11;1.40;;;0.70;;
77733;SDS011;66902;41.720;44.796;2023-02-23T10:54:48;1.30;;;0.80;;
77733;SDS011;66902;41.720;44.796;2023-02-23T10:57:24;2.90;;;0.60;;
77733;SDS011;66902;41.720;44.796;2023-02-23T11:00:02;1.10;;;0.50;;
77733;SDS011;66902;41.720;44.796;2023-02-23T11:02:57;1.80;;;0.40;;
77733;SDS011;66902;41.720;44.796;2023-02-23T11:05:35;1.20;;;0.90;;
77733;SDS011;66902;41.720;44.796;2023-02-23T11:08:19;1.10;;;0.60;;
77733;SDS011;66902;41.720;44.796;2023-02-23T11:11:16;0.50;;;0.40;;
77733;SDS011;66902;41.720;44.796;2023-02-23T11:13:57;1.40;;;0.60;;
77733;SDS011;66902;41.720;44.796;2023-02-23T11:16:36;1.20;;;1.00;;
77733;SDS011;66902;41.720;44.796;2023-02-23T11:19:11;2.40;;;0.90;;
77733;SDS011;66902;41.720;44.796;2023-02-23T11:21:52;5.40;;;0.40;;
77733;SDS011;66902;41.720;44.796;2023-02-23T11:24:27;9.90;;;1.20;;
77733;SDS011;66902;41.720;44.796;2023-02-23T11:29:39;2.70;;;1.20;;
77733;SDS011;66902;41.720;44.796;2023-02-23T11:37:44;1.40;;;0.90;;
77733;SDS011;66902;41.720;44.796;2023-02-23T11:40:19;3.70;;;0.90;;
77733;SDS011;66902;41.720;44.796;2023-02-23T11:42:54;2.90;;;1.50;;
77733;SDS011;66902;41.720;44.796;2023-02-23T11:45:32;2.80;;;0.70;;
77733;SDS011;66902;41.720;44.796;2023-02-23T11:48:21;2.70;;;0.80;;
77733;SDS011;66902;41.720;44.796;2023-02-23T11:51:04;1.80;;;1.00;;
77733;SDS011;66902;41.720;44.796;2023-02-23T11:53:46;1.40;;;0.70;;
77733;SDS011;66902;41.720;44.796;2023-02-23T11:56:21;2.50;;;1.00;;
77733;SDS011;66902;41.720;44.796;2023-02-23T11:58:56;2.80;;;1.60;;
77733;SDS011;66902;41.720;44.796;2023-02-23T12:01:36;15.70;;;1.60;;
77733;SDS011;66902;41.720;44.796;2023-02-23T12:04:23;5.00;;;1.40;;
77733;SDS011;66902;41.720;44.796;2023-02-23T12:07:23;3.30;;;1.40;;
77733;SDS011;66902;41.720;44.796;2023-02-23T12:10:17;3.30;;;1.70;;
77733;SDS011;66902;41.720;44.796;2023-02-23T12:12:57;2.20;;;1.10;;
77733;SDS011;66902;41.720;44.796;2023-02-23T12:15:41;1.70;;;1.10;;
77733;SDS011;66902;41.720;44.796;2023-02-23T12:18:21;0.90;;;0.70;;
77733;SDS011;66902;41.720;44.796;2023-02-23T12:21:12;1.70;;;1.20;;
77733;SDS011;66902;41.720;44.796;2023-02-23T12:23:56;4.50;;;2.20;;
77733;SDS011;66902;41.720;44.796;2023-02-23T12:26:58;4.50;;;1.20;;
77733;SDS011;66902;41.720;44.796;2023-02-23T12:29:43;10.30;;;1.90;;
77733;SDS011;66902;41.720;44.796;2023-02-23T12:32:42;4.00;;;1.20;;
77733;SDS011;66902;41.720;44.796;2023-02-23T12:35:21;4.00;;;1.10;;
77733;SDS011;66902;41.720;44.796;2023-02-23T12:38:01;1.70;;;0.80;;
77733;SDS011;66902;41.720;44.796;2023-02-23T12:40:40;1.70;;;1.30;;
77733;SDS011;66902;41.720;44.796;2023-02-23T12:43:15;1.90;;;0.90;;
77733;SDS011;66902;41.720;44.796;2023-02-23T12:45:51;3.10;;;0.90;;
77733;SDS011;66902;41.720;44.796;2023-02-23T12:48:29;2.90;;;1.20;;
77733;SDS011;66902;41.720;44.796;2023-02-23T12:51:10;5.20;;;1.50;;
77733;SDS011;66902;41.720;44.796;2023-02-23T12:53:50;3.40;;;2.00;;
77733;SDS011;66902;41.720;44.796;2023-02-23T12:56:32;3.30;;;1.50;;
77733;SDS011;66902;41.720;44.796;2023-02-23T12:59:22;2.00;;;1.10;;
77733;SDS011;66902;41.720;44.796;2023-02-23T13:04:49;3.20;;;1.10;;
77733;SDS011;66902;41.720;44.796;2023-02-23T13:07:41;1.20;;;0.70;;
77733;SDS011;66902;41.720;44.796;2023-02-23T13:10:21;1.70;;;0.90;;
77733;SDS011;66902;41.720;44.796;2023-02-23T13:13:02;2.80;;;1.10;;
77733;SDS011;66902;41.720;44.796;2023-02-23T13:15:58;3.40;;;1.60;;
77733;SDS011;66902;41.720;44.796;2023-02-23T13:18:40;2.10;;;1.00;;
77733;SDS011;66902;41.720;44.796;2023-02-23T13:21:27;2.30;;;1.20;;
77733;SDS011;66902;41.720;44.796;2023-02-23T13:24:07;4.60;;;1.10;;
77733;SDS011;66902;41.720;44.796;2023-02-23T13:26:50;2.10;;;1.10;;
77733;SDS011;66902;41.720;44.796;2023-02-23T13:29:29;6.50;;;1.40;;
77733;SDS011;66902;41.720;44.796;2023-02-23T13:32:11;2.00;;;1.10;;
77733;SDS011;66902;41.720;44.796;2023-02-23T13:34:53;9.80;;;1.30;;
77733;SDS011;66902;41.720;44.796;2023-02-23T13:37:31;3.00;;;1.60;;
77733;SDS011;66902;41.720;44.796;2023-02-23T13:40:15;4.80;;;1.40;;
77733;SDS011;66902;41.720;44.796;2023-02-23T13:43:04;4.30;;;0.80;;
77733;SDS011;66902;41.720;44.796;2023-02-23T13:45:49;2.00;;;0.70;;
77733;SDS011;66902;41.720;44.796;2023-02-23T13:48:39;1.80;;;1.10;;
77733;SDS011;66902;41.720;44.796;2023-02-23T13:54:29;2.60;;;1.20;;
77733;SDS011;66902;41.720;44.796;2023-02-23T13:57:12;6.00;;;1.30;;
77733;SDS011;66902;41.720;44.796;2023-02-23T13:59:52;1.70;;;0.90;;
77733;SDS011;66902;41.720;44.796;2023-02-23T14:02:34;8.60;;;1.80;;
77733;SDS011;66902;41.720;44.796;2023-02-23T14:05:18;3.00;;;1.70;;
77733;SDS011;66902;41.720;44.796;2023-02-23T14:07:57;2.40;;;1.20;;
77733;SDS011;66902;41.720;44.796;2023-02-23T14:10:36;1.50;;;1.00;;
77733;SDS011;66902;41.720;44.796;2023-02-23T14:21:47;1.50;;;1.10;;
77733;SDS011;66902;41.720;44.796;2023-02-23T14:24:27;2.70;;;1.10;;
77733;SDS011;66902;41.720;44.796;2023-02-23T14:30:15;2.00;;;1.20;;
77733;SDS011;66902;41.720;44.796;2023-02-23T14:35:59;3.30;;;1.20;;
77733;SDS011;66902;41.720;44.796;2023-02-23T14:38:33;4.70;;;1.40;;
77733;SDS011;66902;41.720;44.796;2023-02-23T14:41:20;3.40;;;1.00;;
77733;SDS011;66902;41.720;44.796;2023-02-23T14:43:55;2.10;;;1.10;;
77733;SDS011;66902;41.720;44.796;2023-02-23T14:46:34;2.30;;;1.00;;
77733;SDS011;66902;41.720;44.796;2023-02-23T14:49:13;3.40;;;1.10;;
77733;SDS011;66902;41.720;44.796;2023-02-23T14:52:05;1.90;;;0.80;;
77733;SDS011;66902;41.720;44.796;2023-02-23T14:54:43;2.00;;;1.00;;
77733;SDS011;66902;41.720;44.796;2023-02-23T14:57:21;4.00;;;1.60;;
77733;SDS011;66902;41.720;44.796;2023-02-23T15:00:06;6.60;;;1.40;;
77733;SDS011;66902;41.720;44.796;2023-02-23T15:02:54;3.30;;;1.40;;
77733;SDS011;66902;41.720;44.796;2023-02-23T15:05:35;1.90;;;1.10;;
77733;SDS011;66902;41.720;44.796;2023-02-23T15:08:19;1.80;;;1.30;;
77733;SDS011;66902;41.720;44.796;2023-02-23T15:10:59;5.00;;;1.00;;
77733;SDS011;66902;41.720;44.796;2023-02-23T15:13:39;2.60;;;1.30;;
77733;SDS011;66902;41.720;44.796;2023-02-23T15:16:15;3.70;;;1.30;;
77733;SDS011;66902;41.720;44.796;2023-02-23T15:18:52;3.20;;;1.50;;
77733;SDS011;66902;41.720;44.796;2023-02-23T15:21:28;1.80;;;0.70;;
77733;SDS011;66902;41.720;44.796;2023-02-23T15:24:05;2.30;;;1.30;;
77733;SDS011;66902;41.720;44.796;2023-02-23T15:26:45;4.50;;;1.90;;
77733;SDS011;66902;41.720;44.796;2023-02-23T15:29:20;3.70;;;1.50;;
77733;SDS011;66902;41.720;44.796;2023-02-23T15:32:09;5.90;;;1.50;;
77733;SDS011;66902;41.720;44.796;2023-02-23T15:34:46;4.70;;;1.20;;
77733;SDS011;66902;41.720;44.796;2023-02-23T15:37:29;4.80;;;1.30;;
77733;SDS011;66902;41.720;44.796;2023-02-23T15:40:08;1.90;;;0.90;;
77733;SDS011;66902;41.720;44.796;2023-02-23T15:42:48;2.00;;;1.00;;
77733;SDS011;66902;41.720;44.796;2023-02-23T15:45:26;2.70;;;1.10;;
77733;SDS011;66902;41.720;44.796;2023-02-23T15:48:06;1.80;;;1.40;;
77733;SDS011;66902;41.720;44.796;2023-02-23T15:50:46;2.70;;;1.70;;
77733;SDS011;66902;41.720;44.796;2023-02-23T15:53:25;3.70;;;1.80;;
77733;SDS011;66902;41.720;44.796;2023-02-23T15:56:03;2.20;;;1.60;;
77733;SDS011;66902;41.720;44.796;2023-02-23T15:58:48;2.30;;;1.90;;
77733;SDS011;66902;41.720;44.796;2023-02-23T16:01:28;4.30;;;1.40;;
77733;SDS011;66902;41.720;44.796;2023-02-23T16:04:04;13.20;;;1.30;;
77733;SDS011;66902;41.720;44.796;2023-02-23T16:06:47;8.10;;;1.60;;
77733;SDS011;66902;41.720;44.796;2023-02-23T16:09:26;2.10;;;1.30;;
77733;SDS011;66902;41.720;44.796;2023-02-23T16:12:03;3.90;;;1.60;;
77733;SDS011;66902;41.720;44.796;2023-02-23T16:14:44;2.90;;;1.60;;
77733;SDS011;66902;41.720;44.796;2023-02-23T16:17:25;3.50;;;1.80;;
77733;SDS011;66902;41.720;44.796;2023-02-23T16:23:39;4.00;;;1.80;;
77733;SDS011;66902;41.720;44.796;2023-02-23T16:26:17;1.60;;;1.10;;
77733;SDS011;66902;41.720;44.796;2023-02-23T16:28:55;6.00;;;1.50;;
77733;SDS011;66902;41.720;44.796;2023-02-23T16:31:43;2.30;;;0.90;;
77733;SDS011;66902;41.720;44.796;2023-02-23T16:34:23;1.20;;;0.50;;
77733;SDS011;66902;41.720;44.796;2023-02-23T16:36:59;1.80;;;0.90;;
77733;SDS011;66902;41.720;44.796;2023-02-23T16:39:34;2.50;;;1.20;;
77733;SDS011;66902;41.720;44.796;2023-02-23T16:42:09;7.10;;;1.20;;
77733;SDS011;66902;41.720;44.796;2023-02-23T16:44:54;2.10;;;1.20;;